sensor_id;sensor_type;location;lat;lon;timestamp;pressure;altitude;pressure_sealevel;temperature;humidity
83264;BME280;73156;50.988;11.034;2024-03-08T00:00:13;99857.28;;;16.67;48.95
83264;BME280;73156;50.988;11.034;2024-03-08T00:02:39;99861.13;;;16.66;49.53
83264;BME280;73156;50.988;11.034;2024-03-08T00:05:05;99803.66;;;16.35;49.37
83264;BME280;73156;50.988;11.034;2024-03-08T00:07:31;99847.22;;;16.66;49.11
83264;BME280;73156;50.988;11.034;2024-03-08T00:09:56;99826.69;;;16.49;49.13
83264;BME280;73156;50.988;11.034;2024-03-08T00:12:21;99842.75;;;16.65;49.11
83264;BME280;73156;50.988;11.034;2024-03-08T00:14:46;99837.88;;;16.60;49.47
83264;BME280;73156;50.988;11.034;2024-03-08T00:17:12;99843.84;;;16.64;49.24
83264;BME280;73156;50.988;11.034;2024-03-08T00:19:37;99838.28;;;16.64;49.08
83264;BME280;73156;50.988;11.034;2024-03-08T00:22:02;99831.25;;;16.61;49.13
83264;BME280;73156;50.988;11.034;2024-03-08T00:24:27;99849.63;;;16.62;49.12
83264;BME280;73156;50.988;11.034;2024-03-08T00:26:54;99849.63;;;16.62;49.48
83264;BME280;73156;50.988;11.034;2024-03-08T00:29:19;99836.41;;;16.58;49.05
83264;BME280;73156;50.988;11.034;2024-03-08T00:31:44;99845.13;;;16.61;49.55
83264;BME280;73156;50.988;11.034;2024-03-08T00:34:10;99842.59;;;16.60;49.18
83264;BME280;73156;50.988;11.034;2024-03-08T00:36:37;99835.09;;;16.60;49.21
83264;BME280;73156;50.988;11.034;2024-03-08T00:39:02;99838.09;;;16.59;48.89
83264;BME280;73156;50.988;11.034;2024-03-08T00:41:31;99785.78;;;16.31;48.90
83264;BME280;73156;50.988;11.034;2024-03-08T00:43:56;99832.78;;;16.57;49.42
83264;BME280;73156;50.988;11.034;2024-03-08T00:46:21;99762.38;;;16.20;49.18
83264;BME280;73156;50.988;11.034;2024-03-08T00:48:47;99804.91;;;16.39;49.01
83264;BME280;73156;50.988;11.034;2024-03-08T00:51:12;99830.00;;;16.57;48.89
83264;BME280;73156;50.988;11.034;2024-03-08T00:53:37;99832.16;;;16.55;49.07
83264;BME280;73156;50.988;11.034;2024-03-08T00:56:03;99827.44;;;16.56;48.78
83264;BME280;73156;50.988;11.034;2024-03-08T00:58:29;99753.72;;;16.10;49.46
83264;BME280;73156;50.988;11.034;2024-03-08T01:00:55;99818.28;;;16.55;48.83
83264;BME280;73156;50.988;11.034;2024-03-08T01:03:22;99778.97;;;16.27;49.24
83264;BME280;73156;50.988;11.034;2024-03-08T01:05:47;99816.59;;;16.54;48.97
83264;BME280;73156;50.988;11.034;2024-03-08T01:08:12;99812.09;;;16.53;49.19
83264;BME280;73156;50.988;11.034;2024-03-08T01:10:37;99786.53;;;16.44;49.33
83264;BME280;73156;50.988;11.034;2024-03-08T01:13:03;99754.91;;;16.21;48.95
83264;BME280;73156;50.988;11.034;2024-03-08T01:15:28;99799.50;;;16.51;48.80
83264;BME280;73156;50.988;11.034;2024-03-08T01:17:54;99801.44;;;16.50;49.27
83264;BME280;73156;50.988;11.034;2024-03-08T01:20:19;99768.50;;;16.29;48.99
83264;BME280;73156;50.988;11.034;2024-03-08T01:22:44;99768.06;;;16.32;49.14
83264;BME280;73156;50.988;11.034;2024-03-08T01:25:09;99787.63;;;16.43;48.92
83264;BME280;73156;50.988;11.034;2024-03-08T01:27:35;99729.38;;;16.12;48.80
83264;BME280;73156;50.988;11.034;2024-03-08T01:30:02;99788.03;;;16.47;48.87
83264;BME280;73156;50.988;11.034;2024-03-08T01:32:27;99783.31;;;16.48;48.89
83264;BME280;73156;50.988;11.034;2024-03-08T01:34:52;99725.50;;;16.13;49.27
83264;BME280;73156;50.988;11.034;2024-03-08T01:37:18;99772.03;;;16.42;49.28
83264;BME280;73156;50.988;11.034;2024-03-08T01:39:43;99771.59;;;16.46;49.25
83264;BME280;73156;50.988;11.034;2024-03-08T01:42:08;99769.88;;;16.44;49.37
83264;BME280;73156;50.988;11.034;2024-03-08T01:44:34;99780.16;;;16.44;48.69
83264;BME280;73156;50.988;11.034;2024-03-08T01:46:59;99764.56;;;16.43;49.21
83264;BME280;73156;50.988;11.034;2024-03-08T01:49:25;99766.50;;;16.42;48.95
83264;BME280;73156;50.988;11.034;2024-03-08T01:51:51;99762.03;;;16.42;48.79
83264;BME280;73156;50.988;11.034;2024-03-08T01:54:18;99763.91;;;16.41;48.72
83264;BME280;73156;50.988;11.034;2024-03-08T01:56:45;99724.19;;;16.16;49.01
83264;BME280;73156;50.988;11.034;2024-03-08T01:59:10;99764.13;;;16.39;48.74
83264;BME280;73156;50.988;11.034;2024-03-08T02:21:46;99704.78;;;16.16;48.27
83264;BME280;73156;50.988;11.034;2024-03-08T02:24:12;99730.03;;;16.32;48.57
83264;BME280;73156;50.988;11.034;2024-03-08T02:26:38;99735.97;;;16.36;48.75
83264;BME280;73156;50.988;11.034;2024-03-08T02:29:03;99739.59;;;16.36;48.15
83264;BME280;73156;50.988;11.034;2024-03-08T02:31:29;99689.50;;;16.07;48.48
83264;BME280;73156;50.988;11.034;2024-03-08T02:33:54;99666.81;;;15.92;48.42
83264;BME280;73156;50.988;11.034;2024-03-08T02:36:19;99731.47;;;16.35;48.76
83264;BME280;73156;50.988;11.034;2024-03-08T02:38:45;99696.88;;;16.13;48.80
83264;BME280;73156;50.988;11.034;2024-03-08T02:41:10;99728.09;;;16.33;48.13
83264;BME280;73156;50.988;11.034;2024-03-08T02:43:35;99701.16;;;16.15;48.37
83264;BME280;73156;50.988;11.034;2024-03-08T02:46:01;99723.44;;;16.27;48.15
83264;BME280;73156;50.988;11.034;2024-03-08T02:48:26;99704.94;;;16.21;48.52
83264;BME280;73156;50.988;11.034;2024-03-08T02:50:51;99715.75;;;16.29;48.19
83264;BME280;73156;50.988;11.034;2024-03-08T02:53:16;99723.22;;;16.28;48.15
83264;BME280;73156;50.988;11.034;2024-03-08T02:55:43;99712.34;;;16.27;48.49
83264;BME280;73156;50.988;11.034;2024-03-08T02:58:09;99708.47;;;16.28;48.25
83264;BME280;73156;50.988;11.034;2024-03-08T03:00:37;99704.03;;;16.27;48.41
83264;BME280;73156;50.988;11.034;2024-03-08T03:03:04;99707.88;;;16.26;48.44
83264;BME280;73156;50.988;11.034;2024-03-08T03:05:29;99698.91;;;16.24;48.21
83264;BME280;73156;50.988;11.034;2024-03-08T03:07:55;99698.91;;;16.24;48.13
83264;BME280;73156;50.988;11.034;2024-03-08T03:10:21;99702.78;;;16.23;48.48
83264;BME280;73156;50.988;11.034;2024-03-08T03:12:47;99687.88;;;16.17;48.12
83264;BME280;73156;50.988;11.034;2024-03-08T03:15:14;99697.22;;;16.23;48.31
83264;BME280;73156;50.988;11.034;2024-03-08T03:17:40;99687.88;;;16.17;48.21
83264;BME280;73156;50.988;11.034;2024-03-08T03:20:08;99588.41;;;15.54;48.32
83264;BME280;73156;50.988;11.034;2024-03-08T03:22:39;99698.53;;;16.20;48.22
83264;BME280;73156;50.988;11.034;2024-03-08T03:25:06;99695.75;;;16.20;48.23
83264;BME280;73156;50.988;11.034;2024-03-08T03:27:32;99699.84;;;16.18;47.96
83264;BME280;73156;50.988;11.034;2024-03-08T03:29:57;99651.22;;;15.91;47.98
83264;BME280;73156;50.988;11.034;2024-03-08T03:32:23;99681.41;;;16.05;48.21
83264;BME280;73156;50.988;11.034;2024-03-08T03:34:48;99644.25;;;15.82;48.35
83264;BME280;73156;50.988;11.034;2024-03-08T03:37:13;99683.72;;;16.08;48.07
83264;BME280;73156;50.988;11.034;2024-03-08T03:39:39;99693.66;;;16.16;48.12
83264;BME280;73156;50.988;11.034;2024-03-08T03:42:15;99687.97;;;16.11;47.86
83264;BME280;73156;50.988;11.034;2024-03-08T03:44:42;99703.06;;;16.15;48.02
83264;BME280;73156;50.988;11.034;2024-03-08T03:47:08;99699.44;;;16.14;48.11
83264;BME280;73156;50.988;11.034;2024-03-08T03:49:33;99689.44;;;16.13;47.95
83264;BME280;73156;50.988;11.034;2024-03-08T03:51:58;99683.88;;;16.13;48.00
83264;BME280;73156;50.988;11.034;2024-03-08T03:54:24;99682.41;;;16.11;47.66
83264;BME280;73156;50.988;11.034;2024-03-08T03:56:49;99686.88;;;16.12;48.01
83264;BME280;73156;50.988;11.034;2024-03-08T03:59:17;99675.78;;;16.12;47.77
83264;BME280;73156;50.988;11.034;2024-03-08T04:01:43;99635.94;;;15.82;48.10
83264;BME280;73156;50.988;11.034;2024-03-08T04:04:08;99675.41;;;16.08;48.24
83264;BME280;73156;50.988;11.034;2024-03-08T04:06:34;99646.81;;;15.83;48.12
83264;BME280;73156;50.988;11.034;2024-03-08T04:08:59;99675.41;;;16.08;48.03
83264;BME280;73156;50.988;11.034;2024-03-08T04:11:24;99674.53;;;16.08;47.96
83264;BME280;73156;50.988;11.034;2024-03-08T04:13:49;99675.16;;;16.10;48.16
83264;BME280;73156;50.988;11.034;2024-03-08T04:16:15;99594.72;;;15.61;48.03
83264;BME280;73156;50.988;11.034;2024-03-08T04:18:40;99671.31;;;16.11;47.99
83264;BME280;73156;50.988;11.034;2024-03-08T04:21:06;99669.34;;;16.11;47.79
83264;BME280;73156;50.988;11.034;2024-03-08T04:23:34;99669.34;;;16.11;47.85
83264;BME280;73156;50.988;11.034;2024-03-08T04:26:03;99623.09;;;15.87;47.94
83264;BME280;73156;50.988;11.034;2024-03-08T04:28:29;99662.75;;;16.12;48.17
83264;BME280;73156;50.988;11.034;2024-03-08T04:30:54;99602.72;;;15.75;48.12
83264;BME280;73156;50.988;11.034;2024-03-08T04:33:19;99667.59;;;16.17;48.84
83264;BME280;73156;50.988;11.034;2024-03-08T04:35:46;99669.53;;;16.16;48.62
83264;BME280;73156;50.988;11.034;2024-03-08T04:38:12;99658.44;;;16.16;48.91
83264;BME280;73156;50.988;11.034;2024-03-08T04:40:37;99570.78;;;15.66;48.53
83264;BME280;73156;50.988;11.034;2024-03-08T04:43:02;99653.34;;;16.13;48.59
83264;BME280;73156;50.988;11.034;2024-03-08T04:45:28;99603.25;;;15.84;48.45
83264;BME280;73156;50.988;11.034;2024-03-08T04:47:53;99655.25;;;16.13;48.88
83264;BME280;73156;50.988;11.034;2024-03-08T04:50:18;99645.09;;;16.07;48.51
83264;BME280;73156;50.988;11.034;2024-03-08T04:52:44;99647.41;;;16.10;48.49
83264;BME280;73156;50.988;11.034;2024-03-08T04:55:09;99655.97;;;16.08;48.98
83264;BME280;73156;50.988;11.034;2024-03-08T04:57:34;99650.66;;;16.07;48.88
83264;BME280;73156;50.988;11.034;2024-03-08T05:00:00;99655.09;;;16.08;48.78
83264;BME280;73156;50.988;11.034;2024-03-08T05:02:25;99657.88;;;16.08;48.62
83264;BME280;73156;50.988;11.034;2024-03-08T05:04:50;99616.97;;;15.79;48.73
83264;BME280;73156;50.988;11.034;2024-03-08T05:07:16;99542.94;;;15.37;48.76
83264;BME280;73156;50.988;11.034;2024-03-08T05:09:41;99639.84;;;15.99;48.93
83264;BME280;73156;50.988;11.034;2024-03-08T05:12:07;99644.91;;;16.02;48.24
83264;BME280;73156;50.988;11.034;2024-03-08T05:14:33;99657.72;;;16.03;48.27
83264;BME280;73156;50.988;11.034;2024-03-08T05:16:59;99583.88;;;15.59;48.57
83264;BME280;73156;50.988;11.034;2024-03-08T05:19:25;99598.94;;;15.70;48.51
83264;BME280;73156;50.988;11.034;2024-03-08T05:21:51;99559.88;;;15.47;48.27
83264;BME280;73156;50.988;11.034;2024-03-08T05:24:16;99652.22;;;15.96;48.62
83264;BME280;73156;50.988;11.034;2024-03-08T05:26:42;99650.31;;;15.97;48.65
83264;BME280;73156;50.988;11.034;2024-03-08T05:29:08;99656.94;;;15.96;48.57
83264;BME280;73156;50.988;11.034;2024-03-08T05:31:49;99649.06;;;15.93;48.83
83264;BME280;73156;50.988;11.034;2024-03-08T05:34:16;99629.31;;;15.83;48.56
83264;BME280;73156;50.988;11.034;2024-03-08T05:36:42;99581.53;;;15.56;48.95
83264;BME280;73156;50.988;11.034;2024-03-08T05:39:12;99598.53;;;15.66;48.34
83264;BME280;73156;50.988;11.034;2024-03-08T05:41:38;99590.19;;;15.66;48.42
83264;BME280;73156;50.988;11.034;2024-03-08T05:44:05;99631.00;;;15.84;48.36
83264;BME280;73156;50.988;11.034;2024-03-08T05:46:30;99650.38;;;15.90;48.84
83264;BME280;73156;50.988;11.034;2024-03-08T05:48:56;99602.44;;;15.59;48.29
83264;BME280;73156;50.988;11.034;2024-03-08T05:51:23;99642.28;;;15.89;48.37
83264;BME280;73156;50.988;11.034;2024-03-08T05:53:49;99646.13;;;15.88;48.82
83264;BME280;73156;50.988;11.034;2024-03-08T05:56:14;99638.25;;;15.85;48.59
83264;BME280;73156;50.988;11.034;2024-03-08T05:58:39;99649.97;;;15.87;48.75
83264;BME280;73156;50.988;11.034;2024-03-08T06:01:04;99644.41;;;15.87;48.76
83264;BME280;73156;50.988;11.034;2024-03-08T06:03:33;99595.19;;;15.58;48.34
83264;BME280;73156;50.988;11.034;2024-03-08T06:05:58;99650.81;;;15.87;48.60
83264;BME280;73156;50.988;11.034;2024-03-08T06:08:24;99585.69;;;15.47;48.71
83264;BME280;73156;50.988;11.034;2024-03-08T06:10:55;99649.13;;;15.86;48.53
83264;BME280;73156;50.988;11.034;2024-03-08T06:13:20;99652.13;;;15.85;49.16
83264;BME280;73156;50.988;11.034;2024-03-08T06:15:45;99578.25;;;15.41;49.03
83264;BME280;73156;50.988;11.034;2024-03-08T06:18:10;99549.84;;;15.21;48.73
83264;BME280;73156;50.988;11.034;2024-03-08T06:20:36;99656.38;;;15.87;48.48
83264;BME280;73156;50.988;11.034;2024-03-08T06:23:02;99659.16;;;15.87;48.89
83264;BME280;73156;50.988;11.034;2024-03-08T06:25:27;99570.59;;;15.43;48.82
83264;BME280;73156;50.988;11.034;2024-03-08T06:27:52;99598.59;;;15.60;49.19
83264;BME280;73156;50.988;11.034;2024-03-08T06:30:18;99653.16;;;15.90;49.04
83264;BME280;73156;50.988;11.034;2024-03-08T06:32:43;99618.50;;;15.75;48.86
83264;BME280;73156;50.988;11.034;2024-03-08T06:35:08;99634.63;;;15.84;49.06
83264;BME280;73156;50.988;11.034;2024-03-08T06:37:35;99634.41;;;15.86;48.80
83264;BME280;73156;50.988;11.034;2024-03-08T06:40:01;99622.13;;;15.75;48.80
83264;BME280;73156;50.988;11.034;2024-03-08T06:42:28;99638.41;;;15.90;48.89
83264;BME280;73156;50.988;11.034;2024-03-08T06:44:54;99646.75;;;15.90;48.67
83264;BME280;73156;50.988;11.034;2024-03-08T06:47:21;99647.59;;;15.90;48.98
83264;BME280;73156;50.988;11.034;2024-03-08T06:49:46;99599.66;;;15.59;48.82
83264;BME280;73156;50.988;11.034;2024-03-08T06:52:11;99580.78;;;15.49;49.06
83264;BME280;73156;50.988;11.034;2024-03-08T06:54:37;99650.16;;;15.92;49.00
83264;BME280;73156;50.988;11.034;2024-03-08T06:57:05;99623.59;;;15.78;49.01
83264;BME280;73156;50.988;11.034;2024-03-08T06:59:33;99593.03;;;15.60;49.03
83264;BME280;73156;50.988;11.034;2024-03-08T07:02:01;99639.50;;;15.89;49.19
83264;BME280;73156;50.988;11.034;2024-03-08T07:04:26;99623.19;;;15.74;48.65
83264;BME280;73156;50.988;11.034;2024-03-08T07:06:55;99568.19;;;15.47;49.26
83264;BME280;73156;50.988;11.034;2024-03-08T07:09:20;99600.84;;;15.69;49.22
83264;BME280;73156;50.988;11.034;2024-03-08T07:11:45;99605.28;;;15.77;49.43
83264;BME280;73156;50.988;11.034;2024-03-08T07:14:11;99623.31;;;15.86;49.31
83264;BME280;73156;50.988;11.034;2024-03-08T07:16:37;99639.88;;;15.92;49.34
83264;BME280;73156;50.988;11.034;2024-03-08T07:19:03;99627.97;;;15.92;49.32
83264;BME280;73156;50.988;11.034;2024-03-08T07:21:29;99625.19;;;15.92;48.77
83264;BME280;73156;50.988;11.034;2024-03-08T07:23:55;99610.75;;;15.83;49.05
83264;BME280;73156;50.988;11.034;2024-03-08T07:26:26;99571.47;;;15.62;48.78
83264;BME280;73156;50.988;11.034;2024-03-08T07:28:51;99598.88;;;15.76;49.23
83264;BME280;73156;50.988;11.034;2024-03-08T07:31:17;99583.34;;;15.69;49.10
83264;BME280;73156;50.988;11.034;2024-03-08T07:33:51;99631.34;;;15.94;49.22
83264;BME280;73156;50.988;11.034;2024-03-08T07:36:18;99581.66;;;15.68;48.91
83264;BME280;73156;50.988;11.034;2024-03-08T07:38:43;99602.00;;;15.80;49.31
83264;BME280;73156;50.988;11.034;2024-03-08T07:41:11;99613.59;;;15.95;48.87
83264;BME280;73156;50.988;11.034;2024-03-08T07:43:36;99539.78;;;15.51;49.18
83264;BME280;73156;50.988;11.034;2024-03-08T07:46:01;99590.88;;;15.86;49.01
83264;BME280;73156;50.988;11.034;2024-03-08T07:48:27;99462.72;;;15.11;48.72
83264;BME280;73156;50.988;11.034;2024-03-08T07:50:52;99605.91;;;15.97;48.85
83264;BME280;73156;50.988;11.034;2024-03-08T07:53:17;99565.66;;;15.70;48.82
83264;BME280;73156;50.988;11.034;2024-03-08T07:55:42;99578.91;;;15.86;48.99
83264;BME280;73156;50.988;11.034;2024-03-08T07:58:09;99553.47;;;15.71;48.82
83264;BME280;73156;50.988;11.034;2024-03-08T08:00:36;99557.25;;;15.76;49.15
83264;BME280;73156;50.988;11.034;2024-03-08T08:03:02;99589.91;;;15.99;48.87
83264;BME280;73156;50.988;11.034;2024-03-08T08:05:27;99556.25;;;15.71;48.59
83264;BME280;73156;50.988;11.034;2024-03-08T08:07:52;99571.97;;;15.77;48.63
83264;BME280;73156;50.988;11.034;2024-03-08T08:10:18;99592.25;;;15.95;48.31
83264;BME280;73156;50.988;11.034;2024-03-08T08:12:49;99500.03;;;15.39;48.22
83264;BME280;73156;50.988;11.034;2024-03-08T08:15:14;99494.88;;;15.43;47.99
83264;BME280;73156;50.988;11.034;2024-03-08T08:17:44;99569.91;;;15.90;48.23
83264;BME280;73156;50.988;11.034;2024-03-08T08:20:10;99591.59;;;16.00;48.05
83264;BME280;73156;50.988;11.034;2024-03-08T08:22:37;99580.88;;;16.03;48.34
83264;BME280;73156;50.988;11.034;2024-03-08T08:25:03;99582.09;;;16.07;48.32
83264;BME280;73156;50.988;11.034;2024-03-08T08:27:28;99572.53;;;16.03;48.26
83264;BME280;73156;50.988;11.034;2024-03-08T08:29:54;99464.78;;;15.46;48.81
83264;BME280;73156;50.988;11.034;2024-03-08T08:32:19;99472.41;;;15.51;49.00
83264;BME280;73156;50.988;11.034;2024-03-08T08:34:45;99581.56;;;16.17;49.25
83264;BME280;73156;50.988;11.034;2024-03-08T08:37:11;99536.78;;;15.95;50.17
83264;BME280;73156;50.988;11.034;2024-03-08T08:39:37;99557.28;;;16.12;50.00
83264;BME280;73156;50.988;11.034;2024-03-08T08:42:03;99516.34;;;15.90;50.69
83264;BME280;73156;50.988;11.034;2024-03-08T08:44:28;99572.72;;;16.26;51.45
83264;BME280;73156;50.988;11.034;2024-03-08T08:46:54;99567.78;;;16.28;51.53
83264;BME280;73156;50.988;11.034;2024-03-08T08:49:19;99551.75;;;16.30;51.28
83264;BME280;73156;50.988;11.034;2024-03-08T08:51:49;99533.91;;;16.20;51.98
83264;BME280;73156;50.988;11.034;2024-03-08T08:54:14;99552.56;;;16.31;50.64
83264;BME280;73156;50.988;11.034;2024-03-08T08:56:42;99549.56;;;16.32;50.46
83264;BME280;73156;50.988;11.034;2024-03-08T08:59:08;99432.22;;;15.60;49.74
83264;BME280;73156;50.988;11.034;2024-03-08T09:01:34;99540.56;;;16.19;49.63
83264;BME280;73156;50.988;11.034;2024-03-08T09:03:59;99544.69;;;16.28;49.31
83264;BME280;73156;50.988;11.034;2024-03-08T09:06:24;99544.69;;;16.28;49.37
83264;BME280;73156;50.988;11.034;2024-03-08T09:08:50;99491.06;;;15.98;48.72
83264;BME280;73156;50.988;11.034;2024-03-08T09:11:15;99535.31;;;16.29;49.04
83264;BME280;73156;50.988;11.034;2024-03-08T09:13:40;99463.03;;;15.88;48.71
83264;BME280;73156;50.988;11.034;2024-03-08T09:16:05;99495.25;;;16.07;48.91
83264;BME280;73156;50.988;11.034;2024-03-08T09:18:31;99534.84;;;16.32;48.57
83264;BME280;73156;50.988;11.034;2024-03-08T09:20:59;99529.31;;;16.32;48.67
83264;BME280;73156;50.988;11.034;2024-03-08T09:23:25;99509.47;;;16.28;48.52
83264;BME280;73156;50.988;11.034;2024-03-08T09:25:51;99469.50;;;16.00;48.62
83264;BME280;73156;50.988;11.034;2024-03-08T09:28:16;99473.88;;;16.07;48.72
83264;BME280;73156;50.988;11.034;2024-03-08T09:30:42;99517.09;;;16.33;48.77
83264;BME280;73156;50.988;11.034;2024-03-08T09:33:08;99504.91;;;16.34;48.35
83264;BME280;73156;50.988;11.034;2024-03-08T09:35:34;99456.72;;;15.99;48.48
83264;BME280;73156;50.988;11.034;2024-03-08T09:38:00;99491.25;;;16.32;47.99
83264;BME280;73156;50.988;11.034;2024-03-08T09:40:26;99462.22;;;16.17;48.36
83264;BME280;73156;50.988;11.034;2024-03-08T09:42:52;99481.03;;;16.33;48.03
83264;BME280;73156;50.988;11.034;2024-03-08T09:45:20;99470.50;;;16.35;47.82
83264;BME280;73156;50.988;11.034;2024-03-08T09:47:47;99478.00;;;16.34;48.12
83264;BME280;73156;50.988;11.034;2024-03-08T09:50:14;99475.22;;;16.34;48.14
83264;BME280;73156;50.988;11.034;2024-03-08T09:52:40;99406.78;;;15.99;48.39
83264;BME280;73156;50.988;11.034;2024-03-08T09:55:06;99468.59;;;16.35;47.87
83264;BME280;73156;50.988;11.034;2024-03-08T09:57:32;99462.28;;;16.28;47.79
83264;BME280;73156;50.988;11.034;2024-03-08T09:59:58;99446.72;;;16.27;48.09
83264;BME280;73156;50.988;11.034;2024-03-08T10:02:23;99402.50;;;15.96;48.31
83264;BME280;73156;50.988;11.034;2024-03-08T10:04:49;99452.78;;;16.36;47.62
83264;BME280;73156;50.988;11.034;2024-03-08T10:07:18;99434.53;;;16.28;47.77
83264;BME280;73156;50.988;11.034;2024-03-08T10:09:43;99448.06;;;16.36;47.75
83264;BME280;73156;50.988;11.034;2024-03-08T10:12:15;99426.88;;;16.24;47.43
83264;BME280;73156;50.988;11.034;2024-03-08T10:14:40;99416.03;;;16.22;47.42
83264;BME280;73156;50.988;11.034;2024-03-08T10:17:06;99435.28;;;16.35;48.01
83264;BME280;73156;50.988;11.034;2024-03-08T10:19:32;99410.00;;;16.25;47.93
83264;BME280;73156;50.988;11.034;2024-03-08T10:21:57;99437.97;;;16.42;47.72
83264;BME280;73156;50.988;11.034;2024-03-08T10:24:23;99410.75;;;16.32;47.99
83264;BME280;73156;50.988;11.034;2024-03-08T10:26:52;99425.81;;;16.43;47.89
83264;BME280;73156;50.988;11.034;2024-03-08T10:29:18;99360.59;;;16.04;47.73
83264;BME280;73156;50.988;11.034;2024-03-08T10:31:43;99357.31;;;16.07;47.76
83264;BME280;73156;50.988;11.034;2024-03-08T10:34:11;99416.41;;;16.44;47.61
83264;BME280;73156;50.988;11.034;2024-03-08T10:36:39;99354.41;;;16.02;47.88
83264;BME280;73156;50.988;11.034;2024-03-08T10:39:15;99418.31;;;16.43;47.65
83264;BME280;73156;50.988;11.034;2024-03-08T10:41:45;99415.53;;;16.43;47.67
83264;BME280;73156;50.988;11.034;2024-03-08T10:44:26;99358.31;;;16.13;48.06
83264;BME280;73156;50.988;11.034;2024-03-08T10:47:02;99387.34;;;16.28;47.96
83264;BME280;73156;50.988;11.034;2024-03-08T10:49:32;99366.06;;;16.22;47.55
83264;BME280;73156;50.988;11.034;2024-03-08T10:52:03;99395.88;;;16.45;47.60
83264;BME280;73156;50.988;11.034;2024-03-08T10:54:29;99400.56;;;16.44;47.55
83264;BME280;73156;50.988;11.034;2024-03-08T10:56:57;99395.72;;;16.40;47.49
83264;BME280;73156;50.988;11.034;2024-03-08T10:59:22;99390.06;;;16.47;47.78
83264;BME280;73156;50.988;11.034;2024-03-08T11:01:49;99369.47;;;16.24;47.87
83264;BME280;73156;50.988;11.034;2024-03-08T11:04:15;99374.06;;;16.30;47.37
83264;BME280;73156;50.988;11.034;2024-03-08T11:06:46;99387.31;;;16.47;47.74
83264;BME280;73156;50.988;11.034;2024-03-08T11:09:31;99390.06;;;16.47;47.66
83264;BME280;73156;50.988;11.034;2024-03-08T11:12:26;99393.47;;;16.49;47.67
83264;BME280;73156;50.988;11.034;2024-03-08T11:14:55;99382.38;;;16.49;47.47
83264;BME280;73156;50.988;11.034;2024-03-08T11:19:50;99377.41;;;16.51;48.09
83264;BME280;73156;50.988;11.034;2024-03-08T11:22:21;99343.03;;;16.33;48.47
83264;BME280;73156;50.988;11.034;2024-03-08T11:24:48;99375.84;;;16.55;48.31
83264;BME280;73156;50.988;11.034;2024-03-08T11:27:14;99365.59;;;16.55;48.54
83264;BME280;73156;50.988;11.034;2024-03-08T11:29:40;99331.47;;;16.36;48.94
83264;BME280;73156;50.988;11.034;2024-03-08T11:32:08;99309.47;;;16.23;48.56
83264;BME280;73156;50.988;11.034;2024-03-08T11:34:35;99360.41;;;16.59;48.30
83264;BME280;73156;50.988;11.034;2024-03-08T11:37:03;99303.59;;;16.31;48.29
83264;BME280;73156;50.988;11.034;2024-03-08T11:39:29;99352.91;;;16.59;48.68
83264;BME280;73156;50.988;11.034;2024-03-08T11:41:55;99345.44;;;16.60;48.15
83264;BME280;73156;50.988;11.034;2024-03-08T11:44:21;99203.09;;;15.77;47.97
83264;BME280;73156;50.988;11.034;2024-03-08T11:46:46;99310.59;;;16.34;48.24
83264;BME280;73156;50.988;11.034;2024-03-08T11:49:14;99325.38;;;16.58;48.38
83264;BME280;73156;50.988;11.034;2024-03-08T11:51:41;99333.00;;;16.62;47.85
83264;BME280;73156;50.988;11.034;2024-03-08T11:54:11;99248.16;;;16.13;48.01
83264;BME280;73156;50.988;11.034;2024-03-08T11:56:37;99256.13;;;16.21;47.79
83264;BME280;73156;50.988;11.034;2024-03-08T11:59:02;99284.28;;;16.36;48.07
83264;BME280;73156;50.988;11.034;2024-03-08T12:01:28;99330.00;;;16.64;47.99
83264;BME280;73156;50.988;11.034;2024-03-08T12:03:54;99321.19;;;16.67;48.38
83264;BME280;73156;50.988;11.034;2024-03-08T12:06:20;99303.53;;;16.61;48.23
83264;BME280;73156;50.988;11.034;2024-03-08T12:08:46;99240.22;;;16.28;47.74
83264;BME280;73156;50.988;11.034;2024-03-08T12:11:17;99299.19;;;16.65;47.64
83264;BME280;73156;50.988;11.034;2024-03-08T12:13:44;99308.00;;;16.74;47.70
83264;BME280;73156;50.988;11.034;2024-03-08T12:16:11;99302.19;;;16.75;47.98
83264;BME280;73156;50.988;11.034;2024-03-08T12:18:38;99311.41;;;16.76;47.88
83264;BME280;73156;50.988;11.034;2024-03-08T12:21:08;99204.38;;;16.27;47.58
83264;BME280;73156;50.988;11.034;2024-03-08T12:23:34;99282.53;;;16.77;47.92
83264;BME280;73156;50.988;11.034;2024-03-08T12:26:13;99262.22;;;16.53;47.93
83264;BME280;73156;50.988;11.034;2024-03-08T12:28:40;99269.72;;;16.76;47.85
83264;BME280;73156;50.988;11.034;2024-03-08T12:31:07;99265.13;;;16.70;48.15
83264;BME280;73156;50.988;11.034;2024-03-08T12:33:36;99248.84;;;16.62;47.69
83264;BME280;73156;50.988;11.034;2024-03-08T12:36:01;99198.56;;;16.28;47.78
83264;BME280;73156;50.988;11.034;2024-03-08T12:38:29;99254.53;;;16.67;48.08
83264;BME280;73156;50.988;11.034;2024-03-08T12:40:59;99221.78;;;16.46;47.94
83264;BME280;73156;50.988;11.034;2024-03-08T12:43:25;99186.50;;;16.23;48.04
83264;BME280;73156;50.988;11.034;2024-03-08T12:45:50;99187.59;;;16.33;48.07
83264;BME280;73156;50.988;11.034;2024-03-08T12:48:16;99249.94;;;16.72;47.48
83264;BME280;73156;50.988;11.034;2024-03-08T12:50:42;99129.66;;;16.02;48.20
83264;BME280;73156;50.988;11.034;2024-03-08T12:53:10;99222.97;;;16.61;47.89
83264;BME280;73156;50.988;11.034;2024-03-08T12:55:36;99226.38;;;16.63;48.09
83264;BME280;73156;50.988;11.034;2024-03-08T12:58:01;99239.31;;;16.69;48.08
83264;BME280;73156;50.988;11.034;2024-03-08T13:00:27;99231.56;;;16.71;48.29
83264;BME280;73156;50.988;11.034;2024-03-08T13:02:53;99234.34;;;16.71;48.21
83264;BME280;73156;50.988;11.034;2024-03-08T13:05:18;99219.38;;;16.72;48.04
83264;BME280;73156;50.988;11.034;2024-03-08T13:07:45;99228.53;;;16.73;48.21